Time;durP1;ratioP1;P1;durP2;ratioP2;P2;SDS_P1;SDS_P2;PMS_P1;PMS_P2;Temp;Humidity;BMP_temperature;BMP_pressure;BME280_temperature;BME280_humidity;BME280_pressure;Samples;Min_cycle;Max_cycle;Signal;HPM_P1;HPM_P2
2023/10/29 00:01:53;;;;;;;1.30;1.00;;;21.70;99.90;;;;;;5016536;28;20936;-64
2023/10/29 00:04:19;;;;;;;1.70;1.10;;;21.70;99.90;;;;;;5017413;28;21079;-66
2023/10/29 00:06:46;;;;;;;1.20;1.07;;;21.80;99.90;;;;;;5018056;28;20450;-64
2023/10/29 00:09:14;;;;;;;1.40;1.10;;;21.70;99.90;;;;;;5018926;28;20474;-66
2023/10/29 00:11:41;;;;;;;1.30;0.80;;;21.80;99.90;;;;;;5015131;28;22138;-64
2023/10/29 00:14:08;;;;;;;1.00;0.80;;;21.70;99.90;;;;;;5019567;28;20462;-63
2023/10/29 00:16:34;;;;;;;1.10;0.93;;;21.70;99.90;;;;;;5017839;28;20468;-66
2023/10/29 00:19:01;;;;;;;1.40;1.10;;;21.70;99.90;;;;;;5020141;28;20469;-63
2023/10/29 00:21:30;;;;;;;1.20;0.90;;;21.70;99.90;;;;;;5018556;28;20459;-66
2023/10/29 00:23:57;;;;;;;1.20;1.00;;;21.70;99.90;;;;;;5021585;28;20469;-65
2023/10/29 00:26:25;;;;;;;1.10;0.90;;;21.70;99.90;;;;;;5017848;28;20457;-63
2023/10/29 00:28:51;;;;;;;1.53;1.00;;;21.60;99.90;;;;;;5018661;28;22684;-64
2023/10/29 00:31:18;;;;;;;1.30;0.77;;;21.60;99.90;;;;;;5018763;28;20757;-65
2023/10/29 00:33:46;;;;;;;1.43;1.13;;;21.60;99.90;;;;;;5018199;28;20842;-63
2023/10/29 00:36:13;;;;;;;1.20;1.10;;;21.60;99.90;;;;;;5018602;28;20468;-64
2023/10/29 00:38:39;;;;;;;1.30;0.80;;;21.60;99.90;;;;;;5019926;28;20458;-62
2023/10/29 00:41:06;;;;;;;2.50;1.20;;;21.50;99.90;;;;;;5023511;28;20470;-68
2023/10/29 00:46:07;;;;;;;1.83;0.97;;;21.60;99.90;;;;;;5020636;28;21028;-65
2023/10/29 00:48:34;;;;;;;1.10;0.90;;;21.50;99.90;;;;;;5023255;28;20463;-68
2023/10/29 00:51:01;;;;;;;1.13;1.00;;;21.60;99.90;;;;;;5026380;28;20480;-67
2023/10/29 00:53:29;;;;;;;1.00;0.80;;;21.60;99.90;;;;;;5025118;28;20456;-63
2023/10/29 00:55:58;;;;;;;1.00;0.90;;;21.50;99.90;;;;;;5017301;28;20293;-64
2023/10/29 00:58:25;;;;;;;1.10;0.85;;;21.50;99.90;;;;;;5021065;28;20468;-67
2023/10/29 01:00:53;;;;;;;1.00;0.77;;;21.50;99.90;;;;;;5019855;28;20207;-67
2023/10/29 01:03:20;;;;;;;1.52;0.90;;;21.50;99.90;;;;;;5020500;28;21640;-67
2023/10/29 01:05:48;;;;;;;1.00;0.70;;;21.50;99.90;;;;;;5019497;28;20207;-64
2023/10/29 01:08:16;;;;;;;1.20;0.90;;;21.40;99.90;;;;;;5022130;28;20465;-67
2023/10/29 01:10:43;;;;;;;1.50;0.80;;;21.50;99.90;;;;;;5021738;28;21470;-65
2023/10/29 01:13:09;;;;;;;1.40;1.05;;;21.40;99.90;;;;;;5020416;28;20457;-67
2023/10/29 01:15:36;;;;;;;1.17;0.83;;;21.40;99.90;;;;;;5020642;28;20509;-65
2023/10/29 01:18:05;;;;;;;1.63;0.93;;;21.50;99.90;;;;;;5021157;28;20466;-65
2023/10/29 01:20:32;;;;;;;1.20;0.90;;;21.50;99.90;;;;;;5017145;28;20464;-64
2023/10/29 01:22:59;;;;;;;2.57;1.10;;;21.40;99.90;;;;;;5021348;28;20674;-67
2023/10/29 01:25:27;;;;;;;1.13;0.80;;;21.60;99.90;;;;;;5022091;28;20562;-64
2023/10/29 01:27:54;;;;;;;1.13;0.90;;;21.40;99.90;;;;;;5020893;28;20920;-65
2023/10/29 01:30:20;;;;;;;2.37;1.27;;;21.40;99.90;;;;;;5016638;28;20478;-66
2023/10/29 01:32:47;;;;;;;1.50;0.90;;;21.40;99.90;;;;;;5018942;28;21100;-64
2023/10/29 01:35:15;;;;;;;1.40;1.00;;;21.40;99.90;;;;;;5018698;28;20488;-68
2023/10/29 01:37:42;;;;;;;1.20;0.90;;;21.40;99.90;;;;;;5022599;28;20487;-65
2023/10/29 01:40:10;;;;;;;1.50;0.80;;;21.40;99.90;;;;;;5013874;28;20199;-66
2023/10/29 01:42:36;;;;;;;1.10;0.87;;;21.40;99.90;;;;;;5022703;28;20465;-66
2023/10/29 01:45:04;;;;;;;1.47;1.03;;;21.30;99.90;;;;;;5022900;28;20464;-62
2023/10/29 01:47:31;;;;;;;1.17;0.80;;;21.40;99.90;;;;;;5021880;28;20550;-63
2023/10/29 01:49:57;;;;;;;1.33;1.00;;;21.30;99.90;;;;;;5019850;28;20477;-65
2023/10/29 01:52:26;;;;;;;1.10;0.80;;;21.40;99.90;;;;;;5019823;28;20465;-64
2023/10/29 01:54:53;;;;;;;1.30;0.90;;;21.30;99.90;;;;;;5016540;28;20695;-67
2023/10/29 01:57:20;;;;;;;1.25;0.90;;;21.30;99.90;;;;;;5021400;28;20955;-64
2023/10/29 01:59:47;;;;;;;1.07;0.80;;;21.30;99.90;;;;;;5019629;28;20698;-66
2023/10/29 02:02:14;;;;;;;1.60;1.00;;;21.40;99.90;;;;;;5019345;28;20451;-66
2023/10/29 02:04:41;;;;;;;1.53;0.80;;;21.30;99.90;;;;;;5019465;28;20210;-67
2023/10/29 02:07:08;;;;;;;1.10;0.85;;;21.20;99.90;;;;;;5020758;28;22518;-67
2023/10/29 02:09:37;;;;;;;1.10;0.70;;;21.30;99.90;;;;;;5019990;28;20223;-65
2023/10/29 02:12:04;;;;;;;1.55;0.90;;;21.20;99.90;;;;;;5018988;28;20459;-63
2023/10/29 02:14:32;;;;;;;1.00;0.80;;;21.30;99.90;;;;;;5017263;28;20191;-64
2023/10/29 02:16:58;;;;;;;1.23;0.80;;;21.30;99.90;;;;;;5018798;28;20196;-65
2023/10/29 02:19:25;;;;;;;1.30;0.80;;;21.20;99.80;;;;;;5018974;28;20197;-67
2023/10/29 02:21:55;;;;;;;1.20;1.00;;;21.40;99.00;;;;;;5020150;28;20457;-65
2023/10/29 02:24:22;;;;;;;1.30;0.82;;;21.20;98.50;;;;;;5021926;28;20216;-65
2023/10/29 02:26:49;;;;;;;1.20;1.05;;;21.30;98.20;;;;;;5021127;28;20290;-64
2023/10/29 02:29:16;;;;;;;1.00;0.80;;;21.20;98.20;;;;;;5019914;28;20475;-65
2023/10/29 02:31:43;;;;;;;1.15;0.90;;;21.20;98.10;;;;;;5018503;28;20220;-65
2023/10/29 02:34:09;;;;;;;1.00;0.70;;;21.20;98.10;;;;;;5017905;28;20196;-66
2023/10/29 02:36:36;;;;;;;1.42;0.80;;;21.20;98.30;;;;;;5023353;28;20458;-67
2023/10/29 02:39:06;;;;;;;1.23;0.90;;;21.20;98.20;;;;;;5018484;28;20194;-67
2023/10/29 02:41:32;;;;;;;1.30;0.87;;;21.20;98.20;;;;;;5019929;28;20218;-66
2023/10/29 02:43:59;;;;;;;1.20;0.80;;;21.20;98.20;;;;;;5020716;28;20463;-66
2023/10/29 02:46:26;;;;;;;1.70;0.77;;;21.20;98.30;;;;;;5017822;28;20465;-66
2023/10/29 02:48:53;;;;;;;1.27;0.93;;;21.20;98.20;;;;;;5021971;28;20191;-67
2023/10/29 02:51:20;;;;;;;1.05;0.80;;;21.10;98.20;;;;;;5020979;28;20478;-63
2023/10/29 02:53:46;;;;;;;1.00;0.70;;;21.10;98.30;;;;;;5019589;28;20196;-63
2023/10/29 02:56:14;;;;;;;1.40;1.10;;;21.20;98.40;;;;;;5017935;28;20199;-66
2023/10/29 02:58:41;;;;;;;1.00;0.80;;;21.10;98.30;;;;;;5021087;28;20465;-66
2023/10/29 03:01:09;;;;;;;1.40;1.07;;;21.10;98.20;;;;;;5018045;28;20467;-63
2023/10/29 03:03:37;;;;;;;0.90;0.77;;;21.00;98.10;;;;;;5019349;28;20468;-64
2023/10/29 03:06:05;;;;;;;1.10;0.80;;;21.20;98.20;;;;;;5022000;28;20202;-63
2023/10/29 03:08:32;;;;;;;1.57;0.80;;;21.00;98.20;;;;;;5021374;28;20324;-62
2023/10/29 03:10:59;;;;;;;1.23;0.90;;;21.10;98.30;;;;;;5017189;28;20482;-65
2023/10/29 03:13:27;;;;;;;1.03;0.70;;;21.10;98.30;;;;;;5016178;28;20198;-66
2023/10/29 03:15:54;;;;;;;1.17;0.90;;;21.00;98.30;;;;;;5015391;28;20489;-65
2023/10/29 03:18:21;;;;;;;1.00;0.90;;;21.00;98.20;;;;;;5019288;28;20203;-67
2023/10/29 03:20:48;;;;;;;1.70;0.90;;;21.10;98.30;;;;;;5020530;28;20195;-64
2023/10/29 03:23:15;;;;;;;1.73;1.08;;;21.00;98.30;;;;;;5014624;28;20962;-64
2023/10/29 03:25:44;;;;;;;1.17;0.93;;;20.90;98.20;;;;;;5015501;28;20707;-62
2023/10/29 03:28:11;;;;;;;2.10;0.90;;;21.20;98.40;;;;;;5019024;28;20781;-66
2023/10/29 03:30:39;;;;;;;1.10;0.80;;;21.00;98.30;;;;;;5016800;28;20223;-67
2023/10/29 03:33:06;;;;;;;1.17;0.90;;;21.00;98.30;;;;;;5018886;28;20473;-62
2023/10/29 03:35:33;;;;;;;1.10;0.90;;;21.10;98.40;;;;;;5019182;28;20469;-68
2023/10/29 03:37:59;;;;;;;1.00;0.77;;;20.90;98.30;;;;;;5017585;28;20202;-67
2023/10/29 03:40:26;;;;;;;1.25;0.70;;;21.00;98.30;;;;;;5017073;28;20204;-66
2023/10/29 03:42:53;;;;;;;1.38;0.80;;;21.00;98.40;;;;;;5014773;28;20869;-65
2023/10/29 03:45:20;;;;;;;2.05;1.00;;;21.10;98.50;;;;;;5016179;28;20282;-67
2023/10/29 03:47:48;;;;;;;1.08;0.80;;;21.00;98.40;;;;;;5015164;28;20672;-64
2023/10/29 03:50:16;;;;;;;1.15;0.90;;;21.00;98.40;;;;;;5016832;28;20766;-63
2023/10/29 03:52:43;;;;;;;1.17;0.90;;;21.00;98.40;;;;;;5015562;28;20196;-65
2023/10/29 03:55:10;;;;;;;0.90;0.73;;;21.00;98.50;;;;;;5019443;28;20202;-64
2023/10/29 03:57:36;;;;;;;1.20;1.00;;;21.00;98.50;;;;;;5014809;28;20199;-67
2023/10/29 04:00:04;;;;;;;0.90;0.70;;;21.00;98.60;;;;;;5013041;28;20199;-62
2023/10/29 04:02:31;;;;;;;1.00;0.70;;;20.90;98.40;;;;;;5015626;28;20212;-68
2023/10/29 04:04:59;;;;;;;1.33;0.82;;;20.90;98.60;;;;;;5018664;28;20198;-72
2023/10/29 04:07:26;;;;;;;1.27;1.00;;;21.00;98.70;;;;;;5019047;28;20191;-65
2023/10/29 04:09:53;;;;;;;1.08;0.90;;;20.90;98.60;;;;;;5018618;28;20204;-69
2023/10/29 04:12:20;;;;;;;1.15;1.00;;;20.90;98.70;;;;;;5018979;28;20230;-72
2023/10/29 04:14:47;;;;;;;1.38;0.80;;;21.00;99.10;;;;;;5020738;28;20199;-69
2023/10/29 04:17:13;;;;;;;1.38;0.82;;;21.00;98.60;;;;;;5019237;28;20215;-70
2023/10/29 04:19:40;;;;;;;1.00;0.80;;;20.90;98.20;;;;;;5019122;28;20199;-71
2023/10/29 04:22:08;;;;;;;1.35;1.08;;;20.90;98.00;;;;;;5018651;28;20214;-70
2023/10/29 04:24:35;;;;;;;1.38;1.25;;;20.90;97.90;;;;;;5022835;28;20245;-69
2023/10/29 04:27:02;;;;;;;0.90;0.70;;;20.80;97.80;;;;;;5016842;28;20194;-72
2023/10/29 04:29:29;;;;;;;1.40;0.93;;;20.90;97.80;;;;;;5021808;28;20211;-70
2023/10/29 04:31:56;;;;;;;1.30;0.90;;;20.80;97.70;;;;;;5018530;28;20481;-69
2023/10/29 04:34:22;;;;;;;1.20;0.90;;;20.80;97.70;;;;;;5018702;28;20805;-74
2023/10/29 04:36:51;;;;;;;1.00;0.77;;;20.80;97.60;;;;;;5014476;28;20199;-68
2023/10/29 04:39:19;;;;;;;1.20;0.90;;;20.80;97.60;;;;;;5020172;28;20204;-68
2023/10/29 04:41:46;;;;;;;1.35;0.80;;;20.80;97.60;;;;;;5020559;28;20666;-68
2023/10/29 04:44:13;;;;;;;1.25;1.05;;;20.80;97.70;;;;;;5022159;28;20204;-67
2023/10/29 04:46:40;;;;;;;1.05;0.70;;;20.80;97.80;;;;;;5019627;28;20198;-73
2023/10/29 04:49:07;;;;;;;1.13;0.70;;;20.80;97.80;;;;;;5019846;28;20207;-68
2023/10/29 04:51:33;;;;;;;1.10;0.90;;;20.70;97.60;;;;;;5020784;28;20881;-75
2023/10/29 04:54:00;;;;;;;1.20;1.08;;;20.80;97.60;;;;;;5022089;28;20222;-72
2023/10/29 04:56:28;;;;;;;1.70;0.85;;;20.70;97.40;;;;;;5019109;28;20227;-71
2023/10/29 04:58:55;;;;;;;1.52;0.90;;;20.80;97.50;;;;;;5014337;28;20777;-67
2023/10/29 05:01:22;;;;;;;1.27;0.80;;;20.70;97.50;;;;;;5015582;28;20208;-75
2023/10/29 05:03:48;;;;;;;1.00;0.80;;;20.70;97.50;;;;;;5019347;28;20210;-75
2023/10/29 05:06:19;;;;;;;1.00;0.80;;;20.80;97.60;;;;;;5021234;28;20558;-70
2023/10/29 05:08:45;;;;;;;1.15;0.80;;;20.60;97.50;;;;;;5019561;28;20216;-71
2023/10/29 05:11:12;;;;;;;1.10;1.00;;;20.70;97.60;;;;;;5008429;28;20315;-72
2023/10/29 05:13:41;;;;;;;1.25;0.95;;;20.70;97.60;;;;;;5007112;28;20216;-64
2023/10/29 05:16:07;;;;;;;1.20;0.80;;;20.70;97.70;;;;;;5018461;28;20334;-68
2023/10/29 05:18:33;;;;;;;1.00;0.80;;;20.70;97.60;;;;;;5018792;28;20225;-68
2023/10/29 05:21:00;;;;;;;1.20;0.80;;;20.70;97.70;;;;;;5018664;28;20478;-67
2023/10/29 05:23:27;;;;;;;1.10;1.00;;;20.70;97.70;;;;;;5014751;28;20550;-70
2023/10/29 05:25:54;;;;;;;1.60;0.80;;;20.70;97.70;;;;;;5016794;28;20223;-66
2023/10/29 05:28:22;;;;;;;1.10;0.88;;;20.60;97.70;;;;;;5021418;28;21694;-69
2023/10/29 05:30:50;;;;;;;1.00;0.80;;;20.70;97.80;;;;;;5022435;28;20231;-66
2023/10/29 05:33:16;;;;;;;1.10;0.80;;;20.70;97.90;;;;;;5022080;28;20221;-64
2023/10/29 05:35:43;;;;;;;1.23;0.73;;;20.70;98.10;;;;;;5021249;28;20954;-71
2023/10/29 05:38:10;;;;;;;1.02;0.68;;;20.70;98.00;;;;;;5021737;28;20187;-68
2023/10/29 05:40:37;;;;;;;1.10;0.95;;;20.60;98.00;;;;;;5018374;28;20203;-66
2023/10/29 05:43:03;;;;;;;1.20;0.88;;;20.70;98.10;;;;;;5023489;28;20681;-63
2023/10/29 05:45:30;;;;;;;1.27;0.80;;;20.70;98.10;;;;;;5021040;28;20809;-72
2023/10/29 05:47:58;;;;;;;1.33;0.80;;;20.70;98.30;;;;;;5021637;28;20745;-66
2023/10/29 05:50:25;;;;;;;1.10;0.80;;;20.60;98.20;;;;;;5018317;28;20211;-65
2023/10/29 05:52:52;;;;;;;1.20;0.80;;;20.70;98.30;;;;;;5018528;28;20224;-68
2023/10/29 05:55:22;;;;;;;1.02;0.70;;;20.60;98.40;;;;;;5021232;28;20734;-72
2023/10/29 05:57:49;;;;;;;1.00;0.80;;;20.60;98.40;;;;;;5014807;28;20200;-71
2023/10/29 06:00:17;;;;;;;1.00;0.80;;;20.60;98.40;;;;;;5018378;28;20682;-68
2023/10/29 06:02:44;;;;;;;1.05;0.70;;;20.60;98.40;;;;;;5021293;28;20207;-65
2023/10/29 06:05:12;;;;;;;1.05;0.80;;;20.60;98.50;;;;;;5016684;28;20200;-66
2023/10/29 06:07:43;;;;;;;1.20;0.80;;;20.60;98.50;;;;;;5017385;28;20215;-69
2023/10/29 06:10:11;;;;;;;1.30;0.80;;;20.60;98.60;;;;;;5022307;28;20207;-68
2023/10/29 06:12:38;;;;;;;1.00;0.80;;;20.60;98.70;;;;;;5016629;28;20229;-67
2023/10/29 06:15:06;;;;;;;2.10;0.77;;;20.60;98.90;;;;;;5017415;28;20196;-66
2023/10/29 06:17:33;;;;;;;5.97;1.10;;;20.50;99.00;;;;;;5015305;28;20226;-71
2023/10/29 06:19:59;;;;;;;0.90;0.70;;;20.60;99.20;;;;;;5019814;28;20203;-72
2023/10/29 06:22:27;;;;;;;1.08;0.80;;;20.60;99.20;;;;;;5023384;28;20235;-69
2023/10/29 06:24:54;;;;;;;1.00;0.70;;;20.60;99.20;;;;;;5021377;28;20203;-69
2023/10/29 06:27:21;;;;;;;1.00;0.70;;;20.60;99.70;;;;;;5020626;28;20708;-72
2023/10/29 06:29:48;;;;;;;1.15;0.75;;;20.60;99.40;;;;;;5017632;28;20199;-66
2023/10/29 06:32:15;;;;;;;13.02;1.00;;;20.60;99.40;;;;;;5018258;28;20230;-67
2023/10/29 06:34:41;;;;;;;2.45;0.93;;;20.50;99.60;;;;;;5018235;28;20702;-67
2023/10/29 06:37:08;;;;;;;1.58;0.80;;;20.60;99.70;;;;;;5020140;28;20204;-67
2023/10/29 06:39:36;;;;;;;1.00;0.80;;;20.60;99.70;;;;;;5020520;28;20205;-68
2023/10/29 06:42:03;;;;;;;1.35;0.70;;;20.50;99.90;;;;;;5017890;28;20237;-69
2023/10/29 06:44:30;;;;;;;4.10;0.70;;;20.60;99.80;;;;;;5022228;28;20202;-66
2023/10/29 06:46:56;;;;;;;0.90;0.70;;;20.60;99.90;;;;;;5019272;28;20258;-64
2023/10/29 06:49:23;;;;;;;0.93;0.70;;;20.50;99.90;;;;;;5019657;28;20203;-65
2023/10/29 06:51:50;;;;;;;1.02;0.80;;;20.60;99.90;;;;;;5020671;28;20599;-66
2023/10/29 06:54:17;;;;;;;1.35;0.85;;;20.50;99.90;;;;;;5018603;28;20199;-67
2023/10/29 06:56:45;;;;;;;1.75;0.80;;;20.50;99.90;;;;;;5014531;28;20202;-67
2023/10/29 06:59:11;;;;;;;1.20;0.70;;;20.50;99.90;;;;;;5020060;28;20556;-67
2023/10/29 07:01:38;;;;;;;1.20;0.85;;;20.50;99.90;;;;;;5017443;28;20455;-67
2023/10/29 07:04:06;;;;;;;0.98;0.70;;;20.50;99.90;;;;;;5021557;28;20650;-68
2023/10/29 07:06:33;;;;;;;1.00;0.77;;;20.50;99.90;;;;;;5020677;28;20226;-66
2023/10/29 07:09:01;;;;;;;0.90;0.70;;;20.50;99.90;;;;;;5018597;28;20230;-68
2023/10/29 07:11:29;;;;;;;1.30;0.80;;;20.40;99.90;;;;;;5018232;28;20254;-68
2023/10/29 07:13:57;;;;;;;1.40;0.93;;;20.50;99.90;;;;;;5021273;28;20205;-68
2023/10/29 07:16:24;;;;;;;2.53;0.90;;;20.50;99.90;;;;;;5019331;28;20200;-67
2023/10/29 07:18:51;;;;;;;1.00;0.80;;;20.50;99.90;;;;;;5018532;28;20667;-65
2023/10/29 07:21:17;;;;;;;1.00;0.80;;;20.50;99.90;;;;;;5015349;28;20740;-68
2023/10/29 07:23:44;;;;;;;1.23;0.82;;;20.50;99.90;;;;;;5018690;28;20199;-68
2023/10/29 07:26:13;;;;;;;1.45;0.80;;;20.50;99.90;;;;;;5016568;28;21229;-69
2023/10/29 07:28:41;;;;;;;1.00;0.73;;;20.40;99.90;;;;;;5018713;28;20284;-64
2023/10/29 07:31:09;;;;;;;1.20;0.77;;;20.50;99.90;;;;;;5020556;28;20606;-68
2023/10/29 07:33:36;;;;;;;1.10;0.80;;;20.50;99.90;;;;;;5020655;28;20232;-67
2023/10/29 07:36:04;;;;;;;0.90;0.70;;;20.60;99.90;;;;;;5018708;28;20794;-66
2023/10/29 07:38:31;;;;;;;0.90;0.70;;;20.50;99.90;;;;;;5019724;28;20202;-69
2023/10/29 07:40:57;;;;;;;0.82;0.60;;;20.60;99.90;;;;;;5019217;28;20268;-62
2023/10/29 07:43:25;;;;;;;1.00;0.70;;;20.40;99.90;;;;;;5015348;28;20639;-62
2023/10/29 07:45:52;;;;;;;1.00;0.80;;;20.60;99.90;;;;;;5019150;28;20239;-66
2023/10/29 07:48:21;;;;;;;0.90;0.60;;;20.70;99.90;;;;;;5019646;28;20207;-66
2023/10/29 07:50:50;;;;;;;1.53;0.90;;;20.60;99.90;;;;;;5018324;28;20241;-68
2023/10/29 07:53:16;;;;;;;0.80;0.60;;;20.70;99.90;;;;;;5021807;28;20492;-64
2023/10/29 07:55:43;;;;;;;1.70;0.75;;;20.60;99.90;;;;;;5020133;28;20462;-67
2023/10/29 07:58:10;;;;;;;1.10;0.68;;;20.60;99.90;;;;;;5012962;28;20958;-67
2023/10/29 08:00:37;;;;;;;1.00;0.80;;;20.60;99.90;;;;;;5014698;28;20686;-69
2023/10/29 08:03:04;;;;;;;1.10;0.80;;;20.70;99.90;;;;;;5011306;28;20203;-68
2023/10/29 08:05:32;;;;;;;1.10;0.80;;;20.80;99.90;;;;;;5017657;28;20203;-69
2023/10/29 08:08:01;;;;;;;1.48;0.70;;;20.70;99.90;;;;;;5017634;28;20468;-68
2023/10/29 08:10:27;;;;;;;0.90;0.68;;;20.90;99.90;;;;;;5018834;28;20198;-65
2023/10/29 08:12:54;;;;;;;1.00;0.70;;;20.70;99.90;;;;;;5019305;28;20230;-67
2023/10/29 08:15:21;;;;;;;1.10;0.70;;;20.70;99.90;;;;;;5018996;28;20210;-67
2023/10/29 08:17:48;;;;;;;1.00;0.70;;;20.80;99.90;;;;;;5015561;28;20576;-67
2023/10/29 08:20:14;;;;;;;1.00;0.70;;;20.80;99.90;;;;;;5018347;28;20749;-64
2023/10/29 08:22:42;;;;;;;1.20;0.70;;;20.80;99.90;;;;;;5021321;28;20489;-68
2023/10/29 08:25:10;;;;;;;1.00;0.80;;;20.80;99.90;;;;;;5017745;28;20802;-66
2023/10/29 08:27:37;;;;;;;1.07;0.80;;;20.90;99.90;;;;;;5019861;28;20802;-66
2023/10/29 08:30:05;;;;;;;1.10;0.87;;;20.80;99.90;;;;;;5018416;28;21210;-65
2023/10/29 08:32:33;;;;;;;1.00;0.70;;;20.90;99.90;;;;;;5019003;28;20480;-67
2023/10/29 08:35:00;;;;;;;1.00;0.70;;;20.90;99.90;;;;;;5016677;28;20755;-67
2023/10/29 08:37:27;;;;;;;1.00;0.80;;;20.90;99.90;;;;;;5020541;28;20472;-67
2023/10/29 08:39:59;;;;;;;2.50;0.70;;;21.00;99.90;;;;;;5018237;28;20457;-63
2023/10/29 08:42:28;;;;;;;1.27;0.70;;;20.80;99.90;;;;;;5013841;28;20492;-65
2023/10/29 08:44:56;;;;;;;1.00;0.80;;;21.00;99.90;;;;;;5015343;28;21469;-68
2023/10/29 08:47:23;;;;;;;1.20;0.80;;;21.00;99.90;;;;;;5017286;28;20229;-66
2023/10/29 08:49:50;;;;;;;1.20;0.70;;;21.00;99.90;;;;;;5016154;28;20489;-66
2023/10/29 08:52:17;;;;;;;1.08;0.70;;;21.10;99.90;;;;;;5016483;28;20477;-65
2023/10/29 08:54:44;;;;;;;1.30;0.70;;;21.10;99.90;;;;;;5020730;28;20210;-67
2023/10/29 08:57:13;;;;;;;1.23;0.80;;;21.00;99.90;;;;;;5015419;28;20465;-66
2023/10/29 08:59:40;;;;;;;1.30;0.70;;;21.10;99.90;;;;;;5011547;28;20465;-68
2023/10/29 09:02:08;;;;;;;1.10;0.80;;;21.10;99.90;;;;;;5013060;28;20664;-64
2023/10/29 09:04:37;;;;;;;1.10;0.80;;;21.10;99.90;;;;;;5020347;28;20458;-69
2023/10/29 09:07:04;;;;;;;1.00;0.80;;;21.00;99.90;;;;;;5018854;28;20464;-66
2023/10/29 09:09:31;;;;;;;2.40;0.93;;;21.10;99.90;;;;;;5019211;28;20462;-64
2023/10/29 09:11:58;;;;;;;1.00;0.70;;;21.10;99.90;;;;;;5020118;28;20474;-62
2023/10/29 09:14:26;;;;;;;2.30;0.70;;;21.10;99.90;;;;;;5013368;28;20462;-68
2023/10/29 09:16:53;;;;;;;0.93;0.70;;;21.10;99.90;;;;;;5015629;28;20706;-69
2023/10/29 09:19:20;;;;;;;1.10;0.80;;;21.10;99.90;;;;;;5021029;28;20456;-66
2023/10/29 09:21:47;;;;;;;1.00;0.80;;;21.10;99.90;;;;;;5021313;28;20496;-66
2023/10/29 09:24:14;;;;;;;1.27;0.60;;;21.20;99.90;;;;;;5023419;28;20857;-66
2023/10/29 09:26:41;;;;;;;1.00;0.70;;;21.10;99.90;;;;;;5015704;28;21161;-69
2023/10/29 09:29:09;;;;;;;1.00;0.70;;;21.20;99.90;;;;;;5011085;28;20465;-69
2023/10/29 09:31:37;;;;;;;0.90;0.70;;;21.30;99.90;;;;;;5013464;28;20986;-65
2023/10/29 09:34:04;;;;;;;0.90;0.70;;;21.30;99.90;;;;;;5014448;28;20537;-69
2023/10/29 09:36:31;;;;;;;0.90;0.70;;;21.20;99.90;;;;;;5021013;28;20462;-66
2023/10/29 09:38:58;;;;;;;0.97;0.63;;;21.30;99.90;;;;;;5020195;28;20205;-69
2023/10/29 09:41:24;;;;;;;1.10;0.93;;;21.20;99.90;;;;;;5018903;28;20925;-66
2023/10/29 09:43:53;;;;;;;1.03;0.70;;;21.20;99.90;;;;;;5016113;28;20962;-68
2023/10/29 09:46:21;;;;;;;1.00;0.70;;;21.20;99.90;;;;;;5018073;28;20459;-65
2023/10/29 09:48:50;;;;;;;1.10;0.70;;;21.20;99.90;;;;;;5016476;28;20552;-67
2023/10/29 09:51:17;;;;;;;1.45;0.80;;;21.20;99.90;;;;;;5018744;28;20468;-64
2023/10/29 09:53:45;;;;;;;0.90;0.70;;;21.30;99.90;;;;;;5016203;28;20215;-63
2023/10/29 09:56:12;;;;;;;1.10;1.00;;;21.30;99.90;;;;;;5020350;28;20457;-66
2023/10/29 09:58:39;;;;;;;0.80;0.60;;;21.30;99.90;;;;;;5017822;28;20497;-66
2023/10/29 10:01:07;;;;;;;1.35;0.70;;;21.20;99.90;;;;;;5020281;28;20774;-65
2023/10/29 10:03:35;;;;;;;1.00;0.80;;;21.20;99.90;;;;;;5021268;28;20214;-69
2023/10/29 10:06:04;;;;;;;1.17;0.80;;;21.30;99.90;;;;;;5022966;28;20473;-66
2023/10/29 10:08:32;;;;;;;1.20;1.10;;;21.30;99.90;;;;;;5022826;28;20459;-68
2023/10/29 10:10:59;;;;;;;1.70;0.70;;;21.20;99.90;;;;;;5020708;28;20555;-70
2023/10/29 10:13:36;;;;;;;2.50;0.80;;;21.30;99.90;;;;;;5018960;28;20478;-66
2023/10/29 10:16:07;;;;;;;2.33;0.80;;;21.20;99.90;;;;;;5016454;28;20468;-65
2023/10/29 10:18:51;;;;;;;0.87;0.60;;;21.30;99.90;;;;;;5020375;28;20938;-67
2023/10/29 10:21:20;;;;;;;1.37;0.80;;;21.40;99.90;;;;;;5022806;28;21024;-70
2023/10/29 10:23:48;;;;;;;1.03;0.80;;;21.30;99.90;;;;;;5021205;28;20453;-61
2023/10/29 10:26:18;;;;;;;5.33;0.90;;;21.30;99.90;;;;;;5021174;28;20464;-69
2023/10/29 10:28:54;;;;;;;0.90;0.60;;;21.30;99.90;;;;;;5018583;28;20464;-69
2023/10/29 10:31:21;;;;;;;1.00;0.80;;;21.30;99.90;;;;;;5023340;28;20578;-68
2023/10/29 10:33:48;;;;;;;1.52;0.70;;;21.30;99.90;;;;;;5016919;28;20489;-66
2023/10/29 10:36:15;;;;;;;1.67;0.70;;;21.30;99.90;;;;;;5021446;28;20286;-68
2023/10/29 10:38:53;;;;;;;1.10;0.90;;;21.40;99.90;;;;;;5023259;28;20473;-69
2023/10/29 10:41:19;;;;;;;1.00;0.70;;;21.30;99.90;;;;;;5018615;28;20211;-65
2023/10/29 10:44:01;;;;;;;0.90;0.70;;;21.40;99.90;;;;;;5018366;28;20469;-66
2023/10/29 10:46:32;;;;;;;1.87;0.73;;;21.40;99.90;;;;;;5021327;28;20976;-69
2023/10/29 10:48:59;;;;;;;1.30;1.00;;;21.20;99.90;;;;;;5020659;28;20465;-68
2023/10/29 10:51:26;;;;;;;1.10;0.80;;;21.40;99.90;;;;;;5022643;28;20466;-69
2023/10/29 10:53:54;;;;;;;1.02;0.77;;;21.40;99.90;;;;;;5019240;28;20481;-67
2023/10/29 10:56:22;;;;;;;1.20;0.70;;;21.40;99.90;;;;;;5017385;28;20205;-69
2023/10/29 10:58:49;;;;;;;3.83;0.80;;;21.30;99.90;;;;;;5021484;28;20458;-67
2023/10/29 11:01:17;;;;;;;1.00;0.83;;;21.30;99.90;;;;;;5018990;28;20203;-67
2023/10/29 11:03:46;;;;;;;0.90;0.70;;;21.40;99.90;;;;;;5022491;28;20461;-64
2023/10/29 11:06:13;;;;;;;1.10;0.83;;;21.50;99.90;;;;;;5019547;28;20600;-68
2023/10/29 11:08:41;;;;;;;1.10;0.73;;;21.40;99.90;;;;;;5022289;28;20457;-66
2023/10/29 11:11:11;;;;;;;1.10;0.70;;;21.30;99.90;;;;;;5023735;28;20894;-71
2023/10/29 11:13:39;;;;;;;1.07;0.80;;;21.40;99.90;;;;;;5020028;28;20844;-73
2023/10/29 11:16:21;;;;;;;3.57;0.70;;;21.40;99.90;;;;;;5012985;28;20457;-71
2023/10/29 11:18:48;;;;;;;1.87;0.70;;;21.60;99.90;;;;;;5019900;28;20897;-72
2023/10/29 11:21:31;;;;;;;2.47;0.83;;;21.40;99.90;;;;;;5018518;28;20470;-69
2023/10/29 11:24:17;;;;;;;1.40;0.60;;;21.50;99.90;;;;;;5018767;28;20619;-66
2023/10/29 11:26:45;;;;;;;1.80;0.87;;;21.50;99.90;;;;;;5018097;28;20457;-71
2023/10/29 11:29:42;;;;;;;0.90;0.60;;;21.40;99.90;;;;;;5015522;28;20477;-70
2023/10/29 11:32:24;;;;;;;1.00;0.70;;;21.50;99.30;;;;;;5016959;28;21137;-69
2023/10/29 11:35:19;;;;;;;1.00;0.70;;;21.50;99.30;;;;;;5017999;28;20461;-68
2023/10/29 11:37:47;;;;;;;1.73;1.23;;;21.40;99.10;;;;;;5020329;28;21336;-72
2023/10/29 11:40:34;;;;;;;1.53;0.93;;;21.50;99.20;;;;;;5022949;28;20533;-72
2023/10/29 11:43:22;;;;;;;0.90;0.70;;;21.50;99.30;;;;;;5013220;28;20457;-72
2023/10/29 11:45:59;;;;;;;1.77;0.80;;;21.50;99.30;;;;;;5017170;28;21080;-71
2023/10/29 11:48:28;;;;;;;1.00;0.80;;;21.50;99.20;;;;;;5018261;28;20462;-66
2023/10/29 11:51:22;;;;;;;1.80;0.73;;;21.50;99.40;;;;;;5018434;28;20462;-68
2023/10/29 11:53:49;;;;;;;1.30;0.83;;;21.50;99.20;;;;;;5016464;28;20473;-70
2023/10/29 11:56:17;;;;;;;1.50;0.70;;;21.50;99.20;;;;;;5019647;28;20466;-69
2023/10/29 11:58:44;;;;;;;1.10;0.80;;;21.60;99.20;;;;;;5014479;28;20462;-72
2023/10/29 12:01:11;;;;;;;1.77;0.80;;;21.50;99.30;;;;;;5018627;28;20461;-72
2023/10/29 12:03:38;;;;;;;1.47;0.73;;;21.50;99.30;;;;;;5021667;28;20472;-73
2023/10/29 12:06:05;;;;;;;1.00;0.70;;;21.60;99.40;;;;;;5021198;28;20458;-73
2023/10/29 12:08:33;;;;;;;6.27;0.93;;;21.60;99.50;;;;;;5019670;28;20473;-68
2023/10/29 12:11:00;;;;;;;1.87;1.00;;;21.60;99.70;;;;;;5018993;28;20969;-67
2023/10/29 12:19:18;;;;;;;1.03;0.70;;;21.60;99.20;;;;;;4979636;28;20564;-66
2023/10/29 12:21:52;;;;;;;5.40;0.93;;;21.60;99.70;;;;;;4994961;28;20502;-70
2023/10/29 12:24:20;;;;;;;4.30;1.00;;;21.60;99.70;;;;;;4999068;28;20486;-69
2023/10/29 12:26:47;;;;;;;1.10;0.90;;;21.60;99.90;;;;;;4997073;28;20458;-72
2023/10/29 12:29:14;;;;;;;0.90;0.60;;;21.70;99.90;;;;;;4998374;28;20468;-70
2023/10/29 12:31:47;;;;;;;0.97;0.67;;;21.60;99.90;;;;;;4997903;28;20473;-65
2023/10/29 12:34:14;;;;;;;1.03;0.73;;;21.70;99.90;;;;;;4994303;28;20564;-65
2023/10/29 12:36:47;;;;;;;1.10;0.80;;;21.60;99.90;;;;;;4987436;28;20988;-68
2023/10/29 12:39:14;;;;;;;1.00;0.70;;;21.70;99.90;;;;;;4995293;28;20832;-65
2023/10/29 12:41:42;;;;;;;2.10;1.03;;;21.60;99.90;;;;;;4996118;28;20803;-68
2023/10/29 12:44:16;;;;;;;1.30;0.80;;;21.60;99.90;;;;;;4994793;28;20958;-73
2023/10/29 12:46:49;;;;;;;1.20;0.80;;;21.70;99.90;;;;;;4996262;28;20458;-69
2023/10/29 12:49:22;;;;;;;1.63;1.33;;;21.60;99.90;;;;;;5003366;28;20463;-69
2023/10/29 12:51:52;;;;;;;1.00;0.70;;;21.60;99.90;;;;;;5003598;28;20971;-70
2023/10/29 12:54:23;;;;;;;1.37;0.80;;;21.60;99.90;;;;;;5004947;28;20482;-72
2023/10/29 12:56:53;;;;;;;0.90;0.70;;;21.60;99.90;;;;;;5002754;28;20506;-68
2023/10/29 12:59:21;;;;;;;1.83;1.00;;;21.70;99.90;;;;;;5002468;28;20451;-69
2023/10/29 13:01:49;;;;;;;1.30;1.00;;;21.70;99.90;;;;;;5002478;28;20467;-69